地図

経路データ

SID SEASON NUMBER BASIN SUBBASIN NAME ISO_TIME NATURE LAT LON WMO_WIND WMO_PRES WMO_AGENCY TRACK_TYPE DIST2LAND LANDFALL IFLAG USA_AGENCY USA_ATCF_ID USA_LAT USA_LON USA_RECORD USA_STATUS USA_WIND USA_PRES USA_SSHS USA_R34_NE USA_R34_SE USA_R34_SW USA_R34_NW USA_R50_NE USA_R50_SE USA_R50_SW USA_R50_NW USA_R64_NE USA_R64_SE USA_R64_SW USA_R64_NW USA_POCI USA_ROCI USA_RMW USA_EYE TOKYO_LAT TOKYO_LON TOKYO_GRADE TOKYO_WIND TOKYO_PRES TOKYO_R50_DIR TOKYO_R50_LONG TOKYO_R50_SHORT TOKYO_R30_DIR TOKYO_R30_LONG TOKYO_R30_SHORT TOKYO_LAND CMA_LAT CMA_LON CMA_CAT CMA_WIND CMA_PRES HKO_LAT HKO_LON HKO_CAT HKO_WIND HKO_PRES NEWDELHI_LAT NEWDELHI_LON NEWDELHI_GRADE NEWDELHI_WIND NEWDELHI_PRES NEWDELHI_CI NEWDELHI_DP NEWDELHI_POCI REUNION_LAT REUNION_LON REUNION_TYPE REUNION_WIND REUNION_PRES REUNION_TNUM REUNION_CI REUNION_RMW REUNION_R34_NE REUNION_R34_SE REUNION_R34_SW REUNION_R34_NW REUNION_R50_NE REUNION_R50_SE REUNION_R50_SW REUNION_R50_NW REUNION_R64_NE REUNION_R64_SE REUNION_R64_SW REUNION_R64_NW BOM_LAT BOM_LON BOM_TYPE BOM_WIND BOM_PRES BOM_TNUM BOM_CI BOM_RMW BOM_R34_NE BOM_R34_SE BOM_R34_SW BOM_R34_NW BOM_R50_NE BOM_R50_SE BOM_R50_SW BOM_R50_NW BOM_R64_NE BOM_R64_SE BOM_R64_SW BOM_R64_NW BOM_ROCI BOM_POCI BOM_EYE BOM_POS_METHOD BOM_PRES_METHOD NADI_LAT NADI_LON NADI_CAT NADI_WIND NADI_PRES WELLINGTON_LAT WELLINGTON_LON WELLINGTON_WIND WELLINGTON_PRES DS824_LAT DS824_LON DS824_STAGE DS824_WIND DS824_PRES TD9636_LAT TD9636_LON TD9636_STAGE TD9636_WIND TD9636_PRES TD9635_LAT TD9635_LON TD9635_WIND TD9635_PRES TD9635_ROCI NEUMANN_LAT NEUMANN_LON NEUMANN_CLASS NEUMANN_WIND NEUMANN_PRES MLC_LAT MLC_LON MLC_CLASS MLC_WIND MLC_PRES USA_GUST BOM_GUST BOM_GUST_PER REUNION_GUST REUNION_GUST_PER USA_SEAHGT USA_SEARAD_NE USA_SEARAD_SE USA_SEARAD_SW USA_SEARAD_NW STORM_SPEED STORM_DIR
1958241N19088 1958 73 NI BB NOT_NAMED 1958-08-28 18:00:00 TS 19.0000 88.0000 main 199 175 O________O____ jtwc_io IO051958 19.0000 88.0000 -1 19.0000 88.0000 TC 4 335
1958241N19088 1958 73 NI BB NOT_NAMED 1958-08-28 21:00:00 TS 19.1600 87.9175 main 175 160 P________P____ IO051958 19.1600 87.9175 -1 19.1600 87.9175 TC 4 328
1958241N19088 1958 73 NI BB NOT_NAMED 1958-08-29 00:00:00 TS 19.3000 87.8000 main 160 137 O________O____ jtwc_io IO051958 19.3000 87.8000 -1 19.3000 87.8000 TC 25 4 311
1958241N19088 1958 73 NI BB NOT_NAMED 1958-08-29 03:00:00 TS 19.4067 87.6200 main 137 115 P________PO___ IO051958 19.4075 87.6225 -1 19.4075 87.6225 TC 25 19.4000 87.6000 1 4 298
1958241N19088 1958 73 NI BB NOT_NAMED 1958-08-29 06:00:00 TS 19.5029 87.3944 main 115 94 O________OP___ jtwc_io IO051958 19.5000 87.4000 -1 19.5000 87.4000 TC 25 19.5146 87.3722 1 5 294
1958241N19088 1958 73 NI BB NOT_NAMED 1958-08-29 09:00:00 TS 19.6064 87.1487 main 85 62 P________PP___ IO051958 19.6000 87.1500 -1 19.6000 87.1500 TC 25 19.6233 87.1453 1 5 294
1958241N19088 1958 73 NI BB NOT_NAMED 1958-08-29 12:00:00 TS 19.7068 86.9069 main 62 38 O________OP___ jtwc_io IO051958 19.7000 86.9000 -1 19.7000 86.9000 TC 25 19.7203 86.9208 1 5 296
1958241N19088 1958 73 NI BB NOT_NAMED 1958-08-29 15:00:00 TS 19.8099 86.7050 main 38 15 P________PO___ IO051958 19.8149 86.7075 -1 19.8149 86.7075 TC 25 19.8000 86.7000 1 4 295
1958241N19088 1958 73 NI BB NOT_NAMED 1958-08-29 18:00:00 TS 19.8860 86.4928 main 15 11 O________OP___ jtwc_io IO051958 19.9000 86.5000 -1 19.9000 86.5000 TC 25 19.8579 86.4784 1 5 282
1958241N19088 1958 73 NI BB NOT_NAMED 1958-08-29 21:00:00 TS 19.9077 86.2341 main 10 0 P________PP___ IO051958 19.9149 86.2374 -1 19.9149 86.2374 TC 25 19.8935 86.2275 1 6 272
1958241N19088 1958 73 NI BB NOT_NAMED 1958-08-30 00:00:00 TS 19.9025 85.9043 main 0 0 O________OP___ jtwc_io IO051958 19.9000 85.9000 -1 19.9000 85.9000 TC 25 19.9075 85.9129 1 7 270
1958241N19088 1958 73 NI BB NOT_NAMED 1958-08-30 03:00:00 TS 19.9098 85.5068 main 0 0 P________PO___ IO051958 19.9147 85.5102 -1 19.9147 85.5102 TC 25 19.9000 85.5000 1 9 269
1958241N19088 1958 73 NI BB NOT_NAMED 1958-08-30 06:00:00 TS 19.8825 84.9872 main 0 0 O________OP___ jtwc_io IO051958 19.9000 85.0000 -1 19.9000 85.0000 TC 25 19.8476 84.9617 1 11 264
1958241N19088 1958 73 NI BB NOT_NAMED 1958-08-30 09:00:00 TS 19.7926 84.3383 main 0 0 P________PP___ IO051958 19.8000 84.3447 -1 19.8000 84.3447 TC 25 19.7779 84.3257 1 13 262
1958241N19088 1958 73 NI BB NOT_NAMED 1958-08-30 12:00:00 TS 19.7064 83.6090 main 0 0 O________OP___ jtwc_io IO051958 19.7000 83.6000 -1 19.7000 83.6000 TC 25 19.7192 83.6271 1 14 265
1958241N19088 1958 73 NI BB NOT_NAMED 1958-08-30 15:00:00 TS 19.6798 82.8766 main 0 0 P________PO___ IO051958 19.6697 82.8650 -1 19.6697 82.8650 TC 25 19.7000 82.9000 1 14 270
1958241N19088 1958 73 NI BB NOT_NAMED 1958-08-30 18:00:00 TS 19.7154 82.1014 main 0 0 O________OP___ jtwc_io IO051958 19.7000 82.1000 -1 19.7000 82.1000 TC 25 19.7463 82.1042 1 15 274
1958241N19088 1958 73 NI BB NOT_NAMED 1958-08-30 21:00:00 TS 19.7919 81.2656 main 0 0 P________PP___ IO051958 19.7704 81.2476 -1 19.7704 81.2476 TC 25 19.8349 81.3015 1 15 278
1958241N19088 1958 73 NI BB NOT_NAMED 1958-08-31 00:00:00 TS 19.9186 80.5243 main 0 0 O________OP___ jtwc_io IO051958 19.9000 80.5000 -1 19.9000 80.5000 TC 25 19.9557 80.5728 1 12 284
1958241N19088 1958 73 NI BB NOT_NAMED 1958-08-31 03:00:00 TS 20.0947 79.9967 main 0 0 P________PO___ IO051958 20.0921 79.9951 -1 20.0921 79.9951 TC 25 20.1000 80.0000 1 9 295
1958241N19088 1958 73 NI BB NOT_NAMED 1958-08-31 06:00:00 TS 20.2852 79.6921 main 0 0 O________OP___ jtwc_io IO051958 20.3000 79.7000 -1 20.3000 79.7000 TC 25 20.2556 79.6762 1 6 310
1958241N19088 1958 73 NI BB NOT_NAMED 1958-08-31 09:00:00 TS 20.4492 79.5405 main 0 0 P________PP___ IO051958 20.4573 79.5548 -1 20.4573 79.5548 TC 25 20.4329 79.5120 1 4 328
1958241N19088 1958 73 NI BB NOT_NAMED 1958-08-31 12:00:00 TS 20.6063 79.4806 main 0 0 O________OP___ jtwc_io IO051958 20.6000 79.5000 -1 20.6000 79.5000 TC 25 20.6188 79.4418 1 3 336
1958241N19088 1958 73 NI BB NOT_NAMED 1958-08-31 15:00:00 TS 20.7667 79.3900 main 0 0 P________PO___ IO051958 20.7500 79.3850 -1 20.7500 79.3850 TC 25 20.8000 79.4000 1 3 332
1958241N19088 1958 73 NI BB NOT_NAMED 1958-08-31 18:00:00 TS 20.9013 79.3097 main 0 0 O________OP___ jtwc_io IO051958 20.9000 79.3000 -1 20.9000 79.3000 TC 25 20.9040 79.3291 1 3 346
1958241N19088 1958 73 NI BB NOT_NAMED 1958-08-31 21:00:00 TS 21.0214 79.3133 main 0 0 P________PP___ IO051958 21.0274 79.3372 -1 21.0274 79.3372 TC 25 21.0094 79.2655 1 3 349
1958241N19088 1958 73 NI BB NOT_NAMED 1958-09-01 00:00:00 TS 21.1867 79.2564 main 0 0 O________OP___ jtwc_io IO051958 21.2000 79.3000 -1 21.2000 79.3000 TC 25 21.1601 79.1693 1 5 325
1958241N19088 1958 73 NI BB NOT_NAMED 1958-09-01 03:00:00 TS 21.4318 79.0016 main 0 0 P________PO___ IO051958 21.4476 79.0025 -1 21.4476 79.0025 TC 25 21.4000 79.0000 1 8 316
1958241N19088 1958 73 NI BB NOT_NAMED 1958-09-01 06:00:00 TS 21.7967 78.6350 main 0 0 O________OP___ jtwc_io IO051958 21.8000 78.6000 -1 21.8000 78.6000 TC 25 21.7901 78.7051 1 11 321
1958241N19088 1958 73 NI BB NOT_NAMED 1958-09-01 09:00:00 TS 22.2693 78.2829 main 0 0 P________PP___ IO051958 22.2699 78.2574 -1 22.2699 78.2574 TC 25 22.2681 78.3340 1 12 326
1958241N19088 1958 73 NI AS NOT_NAMED 1958-09-01 12:00:00 TS 22.7956 77.9069 main 0 0 O________OP___ jtwc_io IO051958 22.8000 77.9000 -1 22.8000 77.9000 TC 25 22.7869 77.9206 1 13 325
1958241N19088 1958 73 NI AS NOT_NAMED 1958-09-01 15:00:00 TS 23.3050 77.5000 main 0 0 P________PO___ IO051958 23.3075 77.4999 -1 23.3075 77.4999 TC 25 23.3000 77.5000 1 12 323
1958241N19088 1958 73 NI AS NOT_NAMED 1958-09-01 18:00:00 TS 23.7906 77.1030 main 0 0 O________OP___ jtwc_io IO051958 23.8000 77.1000 -1 23.8000 77.1000 TC 25 23.7718 77.1089 1 12 324
1958241N19088 1958 73 NI AS NOT_NAMED 1958-09-01 21:00:00 TS 24.2616 76.7350 main 0 0 P________PP___ IO051958 24.2799 76.7423 -1 24.2799 76.7423 TC 25 24.2250 76.7203 1 11 324
1958241N19088 1958 73 NI AS NOT_NAMED 1958-09-02 00:00:00 TS 24.6802 76.3822 main 0 0 O________OP___ jtwc_io IO051958 24.7000 76.4000 -1 24.7000 76.4000 TC 25 24.6406 76.3465 1 10 320
1958241N19088 1958 73 NI AS NOT_NAMED 1958-09-02 03:00:00 TS 25.0250 76.0282 main 0 0 P________PO___ IO051958 25.0375 76.0423 -1 25.0375 76.0423 TC 25 25.0000 76.0000 1 9 314
1958241N19088 1958 73 NI AS NOT_NAMED 1958-09-02 06:00:00 TS 25.2927 75.6943 main 0 0 O________OP___ jtwc_io IO051958 25.3000 75.7000 -1 25.3000 75.7000 TC 25 25.2781 75.6828 1 8 310
1958241N19088 1958 73 NI AS NOT_NAMED 1958-09-02 09:00:00 TS 25.5107 75.3835 main 0 0 P________PP___ IO051958 25.5150 75.3773 -1 25.5150 75.3773 TC 25 25.5021 75.3960 1 7 308
1958241N19088 1958 73 NI AS NOT_NAMED 1958-09-02 12:00:00 TS 25.7000 75.1121 main 0 0 O________OP___ jtwc_io IO051958 25.7000 75.1000 -1 25.7000 75.1000 TC 25 25.7001 75.1362 1 6 311
1958241N19088 1958 73 NI AS NOT_NAMED 1958-09-02 15:00:00 TS 25.8949 74.8899 main 0 0 P________PO___ IO051958 25.8924 74.8848 -1 25.8924 74.8848 TC 25 25.9000 74.9000 1 6 317
1958241N19088 1958 73 NI AS NOT_NAMED 1958-09-02 18:00:00 TS 26.1096 74.6933 main 0 0 O________OP___ jtwc_io IO051958 26.1000 74.7000 -1 26.1000 74.7000 TC 25 26.1239 74.6833 1 6 322
1958241N19088 1958 73 NI AS NOT_NAMED 1958-09-02 21:00:00 TS 26.3530 74.4949 main 0 0 P________PP___ IO051958 26.3401 74.5052 -1 26.3401 74.5052 TC 25 26.3703 74.4812 1 6 325
1958241N19088 1958 73 NI AS NOT_NAMED 1958-09-03 00:00:00 TS 26.6157 74.2942 main 0 0 O________OP___ jtwc_io IO051958 26.6000 74.3000 -1 26.6000 74.3000 TC 25 26.6315 74.2885 1 7 327
1958241N19088 1958 73 NI AS NOT_NAMED 1958-09-03 03:00:00 NR 26.9000 74.1000 main 0 __________O___ IO051958 -1 TC 26.9000 74.1000 1 7 329

IBTrACS Databaseについて

本データベースは、米国NOAAが公開する1842年以降の世界の熱帯低気圧のベストトラックデータアーカイブInternational Best Track Archive for Climate Stewardship (IBTrACS)を、ウェブで閲覧しやすい形式に変換したものです。

最終更新日:2021-10-21